< < Back
Terminal Aerodrome Forecast


Current Version              Previous Versions:   1  2  3  4  5  6  7  8  9  

Terminal Aerodrome Forecast

902
FTUS42 KTAE 201100
TAFDHN
TAF
KDHN 201128Z 2012/2112 00000KT 5SM BR SKC
     FM201300 10003KT P6SM FEW250
     FM201800 27004KT P6SM FEW040 SCT250=

Latest METAR

118
SAUS70 KWBC 211200 RRP
MTRDHN
METAR KDHN 211153Z 34003KT 9SM CLR 11/09 A3005 RMK AO2 SLP174 T01060094
10133 20094 53008 $


USA.gov is the U.S. government's official web portal to all federal, state and local government web resources and services.